Time;durP1;ratioP1;P1;durP2;ratioP2;P2;SDS_P1;SDS_P2;PMS_P1;PMS_P2;Temp;Humidity;BMP_temperature;BMP_pressure;BME280_temperature;BME280_humidity;BME280_pressure;Samples;Min_cycle;Max_cycle;Signal;HPM_P1;HPM_P2
2021/11/01 00:00:20;;;;;;;0.47;0.40;;;13.80;99.90;;;;;;5047841;28;20280;-81
2021/11/01 00:02:48;;;;;;;1.10;0.60;;;13.70;99.90;;;;;;5068266;28;20268;-80
2021/11/01 00:05:14;;;;;;;0.60;0.60;;;13.70;99.90;;;;;;5065958;28;20207;-81
2021/11/01 00:07:40;;;;;;;0.60;0.60;;;13.70;99.90;;;;;;5058498;28;20179;-80
2021/11/01 00:10:08;;;;;;;0.37;0.37;;;13.60;99.90;;;;;;5063321;28;20211;-81
2021/11/01 00:12:33;;;;;;;1.03;0.57;;;13.80;99.90;;;;;;5066675;28;20217;-81
2021/11/01 00:15:00;;;;;;;0.50;0.30;;;13.90;99.90;;;;;;5056526;28;20278;-81
2021/11/01 00:17:27;;;;;;;0.83;0.23;;;14.00;99.90;;;;;;5066567;28;20531;-80
2021/11/01 00:19:54;;;;;;;0.20;0.20;;;14.10;99.90;;;;;;5064675;28;20195;-81
2021/11/01 00:22:21;;;;;;;0.37;0.37;;;14.20;99.90;;;;;;5063002;28;20181;-80
2021/11/01 00:24:47;;;;;;;0.10;0.10;;;14.20;99.90;;;;;;5064420;28;20201;-81
2021/11/01 00:27:13;;;;;;;0.10;0.10;;;14.30;99.90;;;;;;5063359;28;20260;-81
2021/11/01 00:29:39;;;;;;;0.10;0.10;;;14.20;99.90;;;;;;5043564;28;20862;-81
2021/11/01 00:32:05;;;;;;;0.20;0.20;;;14.30;99.90;;;;;;5060482;28;20174;-81
2021/11/01 00:34:31;;;;;;;0.10;0.10;;;14.30;99.90;;;;;;5060266;28;20275;-80
2021/11/01 00:36:56;;;;;;;0.10;0.10;;;14.30;99.90;;;;;;5054017;28;20846;-80
2021/11/01 00:39:22;;;;;;;0.10;0.10;;;14.30;99.90;;;;;;5058149;28;20601;-80
2021/11/01 00:41:48;;;;;;;2.07;0.63;;;14.30;99.90;;;;;;5058314;28;20187;-81
2021/11/01 00:44:13;;;;;;;0.10;0.10;;;14.30;99.90;;;;;;5065907;28;20678;-80
2021/11/01 00:46:39;;;;;;;0.10;0.10;;;14.30;99.90;;;;;;5065100;28;20204;-80
2021/11/01 00:49:05;;;;;;;0.10;0.10;;;14.20;99.90;;;;;;5056934;28;20279;-80
2021/11/01 00:51:36;;;;;;;0.20;0.20;;;14.20;99.90;;;;;;5064246;28;20260;-81
2021/11/01 00:54:02;;;;;;;0.17;0.17;;;14.20;99.90;;;;;;5060831;28;20185;-81
2021/11/01 00:56:27;;;;;;;0.10;0.10;;;14.20;99.90;;;;;;5059197;28;20551;-80
2021/11/01 00:58:53;;;;;;;0.20;0.20;;;14.20;99.90;;;;;;5058757;28;20203;-81
2021/11/01 01:01:18;;;;;;;2.77;0.70;;;14.10;99.90;;;;;;5065492;28;20595;-80
2021/11/01 01:03:45;;;;;;;0.20;0.20;;;14.10;99.90;;;;;;5061685;28;20190;-81
2021/11/01 01:06:12;;;;;;;0.00;0.00;;;14.10;99.90;;;;;;5062540;28;20178;-81
2021/11/01 01:08:38;;;;;;;0.10;0.10;;;14.00;99.90;;;;;;5059255;28;20175;-80
2021/11/01 01:11:04;;;;;;;0.10;0.10;;;14.00;99.90;;;;;;5063220;28;20183;-81
2021/11/01 01:13:35;;;;;;;0.20;0.20;;;13.90;99.90;;;;;;5064009;28;20181;-81
2021/11/01 01:16:10;;;;;;;0.97;0.30;;;13.90;99.90;;;;;;5055065;28;20174;-80
2021/11/01 01:18:38;;;;;;;0.00;0.00;;;13.90;99.90;;;;;;5068262;28;20188;-81
2021/11/01 01:23:50;;;;;;;0.10;0.10;;;13.80;99.90;;;;;;5068486;28;20192;-80
2021/11/01 01:26:16;;;;;;;0.10;0.10;;;13.70;99.90;;;;;;5054590;28;20174;-81
2021/11/01 01:28:43;;;;;;;0.10;0.10;;;13.60;99.90;;;;;;5064520;28;20217;-81
2021/11/01 01:31:08;;;;;;;0.10;0.10;;;13.60;99.90;;;;;;5065396;28;20666;-81
2021/11/01 01:33:34;;;;;;;0.10;0.10;;;13.50;99.90;;;;;;5064921;28;20187;-81
2021/11/01 01:36:00;;;;;;;0.10;0.10;;;13.50;99.90;;;;;;5063840;28;20180;-80
2021/11/01 01:38:26;;;;;;;0.10;0.10;;;13.50;99.90;;;;;;5064713;28;20203;-81
2021/11/01 01:40:54;;;;;;;0.10;0.10;;;13.40;99.90;;;;;;5054431;28;20660;-80
2021/11/01 01:43:20;;;;;;;0.20;0.20;;;13.40;99.90;;;;;;5063200;28;20201;-81
2021/11/01 01:45:45;;;;;;;0.20;0.20;;;13.30;99.90;;;;;;5062841;28;20248;-80
2021/11/01 01:48:13;;;;;;;0.10;0.10;;;13.30;99.90;;;;;;5057927;28;20180;-81
2021/11/01 01:50:38;;;;;;;0.10;0.10;;;13.30;99.90;;;;;;5055392;28;20201;-81
2021/11/01 01:53:04;;;;;;;0.20;0.20;;;13.20;99.90;;;;;;5064948;28;20579;-81
2021/11/01 01:55:31;;;;;;;0.93;0.70;;;13.20;99.90;;;;;;5060435;28;20186;-81
2021/11/01 01:57:56;;;;;;;1.10;0.20;;;13.20;99.90;;;;;;5055847;28;20182;-81
2021/11/01 02:02:50;;;;;;;0.10;0.10;;;13.20;99.90;;;;;;5053683;28;20190;-81
2021/11/01 02:05:16;;;;;;;0.10;0.10;;;13.10;99.90;;;;;;5061620;28;20689;-81
2021/11/01 02:07:54;;;;;;;0.10;0.10;;;13.10;99.90;;;;;;5066500;28;20562;-81
2021/11/01 02:10:27;;;;;;;0.97;0.60;;;13.00;99.90;;;;;;5058483;28;20204;-80
2021/11/01 02:13:02;;;;;;;0.10;0.10;;;13.00;99.90;;;;;;5060148;28;20184;-81
2021/11/01 02:15:39;;;;;;;0.10;0.10;;;13.00;99.90;;;;;;5063532;28;20735;-80
2021/11/01 02:18:07;;;;;;;0.10;0.10;;;13.00;99.90;;;;;;5050361;28;20267;-81
2021/11/01 02:20:35;;;;;;;0.10;0.10;;;13.00;99.90;;;;;;5061963;28;20205;-81
2021/11/01 02:23:44;;;;;;;0.10;0.10;;;13.00;99.90;;;;;;5060670;28;20649;-81
2021/11/01 02:26:12;;;;;;;0.10;0.10;;;13.00;99.90;;;;;;5051423;28;20340;-80
2021/11/01 02:28:40;;;;;;;0.00;0.00;;;12.90;99.90;;;;;;5065945;28;20191;-81
2021/11/01 02:31:10;;;;;;;0.10;0.10;;;12.90;99.90;;;;;;5062448;28;20315;-81
2021/11/01 02:33:37;;;;;;;1.53;0.77;;;13.00;99.90;;;;;;5062395;28;20184;-81
2021/11/01 02:36:04;;;;;;;0.20;0.20;;;12.90;99.90;;;;;;5057913;28;20438;-81
2021/11/01 02:38:33;;;;;;;0.00;0.00;;;12.90;99.90;;;;;;5061325;28;20174;-81
2021/11/01 02:41:06;;;;;;;0.10;0.10;;;12.90;99.90;;;;;;5059008;28;20206;-81
2021/11/01 02:43:32;;;;;;;0.20;0.20;;;12.80;99.90;;;;;;5054046;28;20180;-81
2021/11/01 02:45:58;;;;;;;0.10;0.10;;;12.90;99.90;;;;;;5063742;28;20196;-80
2021/11/01 02:48:24;;;;;;;0.33;0.33;;;12.90;99.90;;;;;;5057702;28;20184;-80
2021/11/01 02:50:49;;;;;;;0.00;0.00;;;12.90;99.90;;;;;;5061514;28;20702;-80
2021/11/01 02:53:15;;;;;;;0.17;0.17;;;12.90;99.90;;;;;;5063601;28;20665;-81
2021/11/01 02:55:41;;;;;;;0.10;0.10;;;12.90;99.90;;;;;;5056590;28;20187;-81
2021/11/01 02:58:06;;;;;;;0.10;0.10;;;12.90;99.90;;;;;;5066611;28;20193;-81
2021/11/01 03:00:33;;;;;;;0.10;0.10;;;12.90;99.90;;;;;;5059086;28;20282;-80
2021/11/01 03:02:59;;;;;;;0.10;0.10;;;12.80;99.90;;;;;;5067466;28;20529;-80
2021/11/01 03:05:28;;;;;;;0.37;0.37;;;12.80;99.90;;;;;;5060918;28;20313;-80
2021/11/01 03:07:56;;;;;;;0.27;0.27;;;12.80;99.90;;;;;;5068269;28;20658;-80
2021/11/01 03:10:24;;;;;;;0.10;0.10;;;12.70;99.90;;;;;;5068310;28;20207;-80
2021/11/01 03:12:51;;;;;;;0.40;0.40;;;12.40;99.90;;;;;;5064485;28;20180;-81
2021/11/01 03:15:23;;;;;;;0.10;0.10;;;12.50;99.90;;;;;;5068155;28;20181;-81
2021/11/01 03:18:04;;;;;;;0.00;0.00;;;12.60;99.90;;;;;;5065718;28;20164;-81
2021/11/01 03:20:40;;;;;;;0.00;0.00;;;12.60;99.90;;;;;;5066999;28;20200;-80
2021/11/01 03:23:17;;;;;;;0.10;0.10;;;12.60;99.90;;;;;;5056950;28;20185;-81
2021/11/01 03:25:52;;;;;;;0.10;0.10;;;12.60;99.90;;;;;;5066245;28;20562;-80
2021/11/01 03:28:18;;;;;;;0.10;0.10;;;12.70;99.90;;;;;;5055662;28;20267;-81
2021/11/01 03:30:47;;;;;;;0.10;0.10;;;12.60;99.90;;;;;;5065829;28;20227;-81
2021/11/01 03:33:14;;;;;;;0.10;0.10;;;12.60;99.90;;;;;;5066513;28;20181;-80
2021/11/01 03:35:42;;;;;;;0.10;0.10;;;12.50;99.90;;;;;;5064301;28;20646;-81
2021/11/01 03:38:10;;;;;;;0.10;0.10;;;12.40;99.90;;;;;;5060437;28;20264;-80
2021/11/01 03:40:37;;;;;;;0.10;0.10;;;12.40;99.90;;;;;;5053538;28;20209;-81
2021/11/01 03:43:05;;;;;;;0.10;0.10;;;12.30;99.90;;;;;;5069312;28;20172;-80
2021/11/01 03:45:33;;;;;;;0.10;0.10;;;12.20;99.90;;;;;;5065001;28;20240;-80
2021/11/01 03:48:04;;;;;;;0.10;0.10;;;12.30;99.90;;;;;;5065809;28;20512;-80
2021/11/01 03:50:44;;;;;;;0.10;0.10;;;12.40;99.90;;;;;;5066216;28;20193;-80
2021/11/01 03:53:10;;;;;;;1.70;0.13;;;12.50;99.90;;;;;;5058387;28;20253;-81
2021/11/01 03:55:36;;;;;;;0.10;0.10;;;12.50;99.90;;;;;;5060548;28;20182;-81
2021/11/01 03:58:03;;;;;;;0.10;0.10;;;12.50;99.90;;;;;;5069586;28;20239;-81
2021/11/01 04:00:32;;;;;;;0.20;0.20;;;12.50;99.90;;;;;;5063613;28;20237;-80
2021/11/01 04:02:58;;;;;;;0.50;0.17;;;12.50;99.90;;;;;;5067283;28;20183;-80
2021/11/01 04:05:24;;;;;;;0.10;0.10;;;12.30;99.90;;;;;;5067796;28;20211;-81
2021/11/01 04:07:50;;;;;;;0.10;0.10;;;12.20;99.90;;;;;;5063439;28;20173;-80
2021/11/01 04:10:15;;;;;;;0.20;0.20;;;12.00;99.90;;;;;;5062418;28;20573;-80
2021/11/01 04:12:43;;;;;;;0.33;0.33;;;11.60;99.90;;;;;;5058957;28;20676;-81
2021/11/01 04:15:12;;;;;;;0.20;0.20;;;11.70;99.90;;;;;;5063089;28;20654;-80
2021/11/01 04:18:02;;;;;;;0.17;0.10;;;11.50;99.90;;;;;;5063548;28;20184;-81
2021/11/01 04:23:11;;;;;;;0.10;0.10;;;11.70;99.90;;;;;;5061814;28;20183;-80
2021/11/01 04:25:37;;;;;;;0.10;0.10;;;11.80;99.90;;;;;;5064143;28;20300;-81
2021/11/01 04:28:03;;;;;;;0.10;0.10;;;12.00;99.90;;;;;;5070050;28;20201;-80
2021/11/01 04:30:37;;;;;;;0.20;0.10;;;12.10;99.90;;;;;;5064740;28;20354;-80
2021/11/01 04:33:04;;;;;;;0.10;0.10;;;12.20;99.90;;;;;;5052733;28;20182;-80
2021/11/01 04:35:34;;;;;;;0.10;0.10;;;12.30;99.90;;;;;;5064515;28;20188;-81
2021/11/01 04:54:18;;;;;;;2.73;0.30;;;12.40;99.90;;;;;;5054331;28;20192;-81
2021/11/01 04:56:45;;;;;;;1.50;0.37;;;12.40;99.90;;;;;;5064214;28;20181;-80
2021/11/01 04:59:11;;;;;;;0.10;0.10;;;12.40;99.90;;;;;;5065035;28;20262;-80
2021/11/01 05:01:40;;;;;;;0.10;0.10;;;12.40;99.90;;;;;;5062483;28;20194;-80
2021/11/01 05:04:08;;;;;;;0.10;0.10;;;12.40;99.90;;;;;;5060264;28;20176;-81
2021/11/01 05:06:41;;;;;;;0.10;0.10;;;12.30;99.90;;;;;;5037252;28;20185;-81
2021/11/01 05:09:10;;;;;;;0.20;0.20;;;12.40;99.90;;;;;;5050928;28;20243;-81
2021/11/01 05:11:59;;;;;;;0.83;0.27;;;12.40;99.90;;;;;;5066808;28;20264;-81
2021/11/01 05:17:34;;;;;;;0.20;0.20;;;12.30;99.90;;;;;;5052985;28;20581;-81
2021/11/01 05:25:36;;;;;;;0.10;0.10;;;12.30;99.90;;;;;;5063481;28;20677;-81
2021/11/01 05:30:12;;;;;;;0.00;0.00;;;12.30;99.90;;;;;;5059710;28;20306;-81
2021/11/01 05:32:41;;;;;;;0.10;0.10;;;12.20;99.90;;;;;;5055110;28;20223;-81
2021/11/01 05:35:07;;;;;;;0.10;0.10;;;12.20;99.90;;;;;;5063801;28;20238;-81
2021/11/01 05:37:34;;;;;;;0.10;0.10;;;12.20;99.90;;;;;;5057659;28;20679;-81
2021/11/01 05:39:59;;;;;;;0.00;0.00;;;12.20;99.90;;;;;;5062960;28;20235;-81
2021/11/01 05:42:25;;;;;;;0.10;0.10;;;12.20;99.90;;;;;;5061485;28;20217;-81
2021/11/01 05:44:51;;;;;;;0.10;0.10;;;12.20;99.90;;;;;;5068524;28;20679;-81
2021/11/01 05:47:17;;;;;;;0.10;0.10;;;12.10;99.90;;;;;;5061677;28;20192;-82
2021/11/01 05:49:43;;;;;;;0.10;0.10;;;12.20;99.90;;;;;;5050386;28;20215;-81
2021/11/01 05:52:23;;;;;;;3.10;0.20;;;12.20;99.90;;;;;;5064470;28;20178;-81
2021/11/01 05:54:52;;;;;;;0.13;0.13;;;12.20;99.90;;;;;;5064232;28;20178;-80
2021/11/01 05:58:07;;;;;;;0.07;0.07;;;12.20;99.90;;;;;;5062178;28;20601;-80
2021/11/01 06:00:17;;;;;;;0.10;0.10;;;12.20;99.90;;;;;;5053776;28;20217;-80
2021/11/01 06:02:56;;;;;;;0.10;0.10;;;12.30;99.90;;;;;;5051097;28;20189;-80
2021/11/01 06:05:38;;;;;;;0.20;0.20;;;12.20;99.90;;;;;;5061108;28;20307;-80
2021/11/01 06:13:29;;;;;;;0.13;0.13;;;12.10;99.90;;;;;;5053676;28;20177;-82
2021/11/01 06:15:57;;;;;;;0.07;0.07;;;12.20;99.90;;;;;;5058097;28;20208;-81
2021/11/01 06:18:33;;;;;;;0.10;0.10;;;12.10;99.90;;;;;;5052752;28;20223;-81
2021/11/01 06:20:58;;;;;;;0.10;0.10;;;12.00;99.90;;;;;;5063780;28;20195;-80
2021/11/01 06:23:24;;;;;;;0.20;0.20;;;12.00;99.90;;;;;;5065347;28;20554;-81
2021/11/01 06:25:51;;;;;;;2.03;0.87;;;11.90;99.90;;;;;;5047282;28;20206;-80
2021/11/01 06:28:18;;;;;;;0.10;0.10;;;11.90;99.90;;;;;;5075135;28;20199;-81
2021/11/01 06:30:53;;;;;;;0.20;0.20;;;11.90;99.90;;;;;;5057649;28;20856;-81
2021/11/01 06:44:41;;;;;;;0.63;0.60;;;11.80;99.90;;;;;;5066341;28;20193;-81
2021/11/01 07:14:26;;;;;;;0.10;0.10;;;11.90;99.90;;;;;;5057541;28;20183;-81
2021/11/01 07:16:59;;;;;;;0.20;0.20;;;11.90;99.90;;;;;;5051655;28;20610;-81
2021/11/01 08:22:05;;;;;;;0.10;0.10;;;12.40;99.90;;;;;;5063882;28;20192;-81
2021/11/01 08:40:24;;;;;;;0.97;0.40;;;12.50;99.90;;;;;;5069365;28;20231;-80
2021/11/01 09:04:50;;;;;;;0.10;0.10;;;12.90;99.90;;;;;;5070072;28;20764;-82
2021/11/01 09:07:31;;;;;;;0.10;0.10;;;12.90;99.90;;;;;;5053995;28;20180;-81
2021/11/01 09:20:46;;;;;;;0.30;0.30;;;13.10;99.90;;;;;;5058860;28;20209;-82
2021/11/01 09:25:48;;;;;;;0.10;0.10;;;13.10;99.90;;;;;;5050354;28;20208;-81
2021/11/01 09:28:25;;;;;;;0.10;0.10;;;13.10;99.90;;;;;;5048058;28;20176;-81
2021/11/01 09:41:33;;;;;;;0.20;0.20;;;13.20;99.90;;;;;;5062479;28;20211;-83
2021/11/01 09:44:00;;;;;;;0.10;0.10;;;13.30;99.90;;;;;;5063372;28;20618;-82
2021/11/01 09:46:27;;;;;;;0.30;0.30;;;13.30;99.90;;;;;;5050852;28;20210;-82
2021/11/01 09:49:13;;;;;;;0.20;0.20;;;13.40;99.90;;;;;;5057416;28;20207;-81
2021/11/01 09:51:44;;;;;;;0.10;0.10;;;13.30;99.90;;;;;;5058793;28;20186;-82
2021/11/01 09:54:19;;;;;;;0.20;0.20;;;13.40;99.90;;;;;;5065374;28;20181;-82
2021/11/01 09:56:58;;;;;;;0.90;0.30;;;13.50;99.90;;;;;;5064545;28;20184;-82
2021/11/01 09:59:28;;;;;;;0.10;0.10;;;13.60;99.90;;;;;;5062291;28;20753;-82
2021/11/01 10:01:54;;;;;;;0.10;0.10;;;13.70;99.90;;;;;;5052724;28;20528;-82
2021/11/01 10:04:23;;;;;;;0.10;0.10;;;13.70;99.90;;;;;;5045426;28;20196;-81
2021/11/01 10:07:18;;;;;;;0.10;0.10;;;13.70;99.90;;;;;;5048692;28;20212;-81
2021/11/01 10:09:45;;;;;;;0.13;0.13;;;13.70;99.90;;;;;;5056169;28;20208;-81
2021/11/01 10:12:20;;;;;;;0.30;0.20;;;14.20;99.90;;;;;;5057301;28;20184;-81
2021/11/01 10:14:51;;;;;;;0.47;0.47;;;14.50;99.90;;;;;;5041916;28;20193;-81
2021/11/01 10:17:34;;;;;;;0.50;0.50;;;14.80;99.90;;;;;;5043873;28;21103;-81
2021/11/01 10:20:06;;;;;;;0.30;0.30;;;14.90;99.90;;;;;;5048640;28;20203;-82
2021/11/01 10:22:34;;;;;;;0.20;0.20;;;14.90;99.90;;;;;;5048178;28;20205;-81
2021/11/01 10:25:00;;;;;;;0.20;0.20;;;15.00;99.90;;;;;;5065950;28;20242;-80
2021/11/01 10:27:31;;;;;;;0.67;0.57;;;14.90;99.90;;;;;;5050309;28;20183;-80
2021/11/01 10:30:10;;;;;;;0.30;0.20;;;14.80;99.90;;;;;;5061190;28;20782;-80
2021/11/01 10:32:44;;;;;;;0.20;0.20;;;14.60;99.90;;;;;;5058671;28;20540;-81
2021/11/01 10:35:21;;;;;;;0.60;0.60;;;14.70;99.90;;;;;;5050763;28;20217;-80
2021/11/01 10:37:59;;;;;;;0.10;0.10;;;14.50;99.90;;;;;;5058449;28;20193;-80
2021/11/01 10:40:26;;;;;;;4.20;0.60;;;14.30;99.90;;;;;;5061436;28;20559;-81
2021/11/01 10:42:53;;;;;;;0.13;0.13;;;14.30;99.90;;;;;;5051064;28;20182;-81
2021/11/01 10:46:05;;;;;;;0.10;0.10;;;14.20;99.90;;;;;;5057102;28;20197;-81
2021/11/01 11:12:58;;;;;;;0.20;0.20;;;15.20;99.90;;;;;;5058472;28;20215;-81
2021/11/01 11:15:26;;;;;;;0.33;0.20;;;15.10;99.90;;;;;;5057802;28;20248;-81
2021/11/01 11:50:36;;;;;;;0.10;0.10;;;15.20;99.90;;;;;;5069360;28;20268;-81
2021/11/01 11:53:13;;;;;;;0.10;0.10;;;15.00;99.90;;;;;;5061753;28;20186;-80
2021/11/01 11:55:40;;;;;;;0.10;0.10;;;14.90;99.90;;;;;;5053099;28;20191;-80
2021/11/01 11:58:07;;;;;;;0.13;0.13;;;14.70;99.90;;;;;;5067816;28;20187;-80
2021/11/01 12:00:35;;;;;;;0.10;0.10;;;14.60;99.90;;;;;;5059071;28;20211;-80
2021/11/01 12:03:37;;;;;;;0.30;0.30;;;14.50;99.90;;;;;;5053089;28;20235;-80
2021/11/01 12:06:11;;;;;;;0.10;0.10;;;14.50;99.90;;;;;;5058945;28;20280;-80
2021/11/01 12:08:41;;;;;;;1.73;0.20;;;14.50;99.90;;;;;;5056586;28;20206;-80
2021/11/01 12:19:16;;;;;;;0.10;0.10;;;14.50;99.90;;;;;;5051734;28;20203;-81
2021/11/01 12:21:51;;;;;;;0.27;0.27;;;14.40;99.90;;;;;;5058120;28;20204;-82
2021/11/01 12:24:23;;;;;;;0.10;0.10;;;14.30;99.90;;;;;;5067301;28;20217;-81
2021/11/01 12:27:01;;;;;;;1.23;0.37;;;14.40;99.90;;;;;;5058211;28;20173;-81
2021/11/01 12:29:26;;;;;;;0.10;0.10;;;14.30;99.90;;;;;;5058278;28;20217;-81
2021/11/01 12:32:03;;;;;;;1.10;0.50;;;14.30;99.90;;;;;;5070568;28;20698;-81
2021/11/01 12:34:28;;;;;;;0.97;0.33;;;14.40;99.90;;;;;;5055671;28;20171;-81
2021/11/01 12:39:39;;;;;;;0.37;0.37;;;14.70;99.90;;;;;;5059220;28;20277;-82
2021/11/01 12:58:04;;;;;;;0.10;0.10;;;15.30;99.90;;;;;;5047447;28;20196;-81
2021/11/01 13:00:39;;;;;;;0.10;0.10;;;15.40;99.90;;;;;;5044257;28;20207;-82
2021/11/01 13:03:21;;;;;;;0.60;0.60;;;15.40;99.90;;;;;;5053001;28;20190;-81
2021/11/01 13:05:58;;;;;;;0.10;0.10;;;15.40;99.90;;;;;;5049359;28;20199;-82
2021/11/01 13:08:28;;;;;;;0.10;0.10;;;15.40;99.90;;;;;;5051145;28;20727;-81
2021/11/01 13:10:58;;;;;;;0.20;0.13;;;15.30;99.90;;;;;;5055001;28;20232;-81
2021/11/01 13:19:02;;;;;;;0.10;0.10;;;15.00;99.90;;;;;;5058496;28;20204;-82
2021/11/01 13:21:35;;;;;;;3.63;0.83;;;14.70;99.90;;;;;;5056944;28;20173;-81
2021/11/01 13:24:04;;;;;;;0.10;0.10;;;14.50;99.90;;;;;;5050687;28;20256;-81
2021/11/01 13:39:45;;;;;;;0.10;0.10;;;14.00;99.90;;;;;;5062626;28;20221;-83
2021/11/01 13:42:16;;;;;;;0.20;0.20;;;14.00;99.90;;;;;;5064278;28;20257;-82
2021/11/01 13:44:44;;;;;;;0.97;0.63;;;14.00;99.90;;;;;;5059458;28;20206;-82
2021/11/01 13:47:15;;;;;;;0.10;0.10;;;14.10;99.90;;;;;;5055613;28;20181;-83
2021/11/01 13:49:45;;;;;;;0.20;0.20;;;14.00;99.90;;;;;;5065613;28;20206;-83
2021/11/01 13:52:30;;;;;;;0.10;0.10;;;13.90;99.90;;;;;;5055817;28;20276;-83
2021/11/01 13:55:33;;;;;;;0.10;0.10;;;13.90;99.90;;;;;;5064279;28;20193;-83
2021/11/01 13:57:51;;;;;;;0.10;0.10;;;13.80;99.90;;;;;;5067320;28;20224;-83
2021/11/01 14:14:03;;;;;;;1.27;0.23;;;13.80;99.90;;;;;;5055705;28;20546;-83
2021/11/01 14:16:36;;;;;;;0.10;0.10;;;13.80;99.90;;;;;;5062304;28;20189;-82
2021/11/01 14:35:43;;;;;;;0.10;0.10;;;14.50;99.90;;;;;;5061872;28;20230;-82
2021/11/01 14:58:32;;;;;;;0.10;0.10;;;13.70;99.90;;;;;;5072255;28;20641;-82
2021/11/01 15:34:20;;;;;;;0.10;0.10;;;12.50;99.90;;;;;;5060141;28;20202;-82
2021/11/01 15:40:09;;;;;;;0.10;0.10;;;12.30;99.90;;;;;;5064251;28;20209;-81
2021/11/01 16:18:12;;;;;;;0.40;0.20;;;11.30;99.90;;;;;;5073503;28;20192;-83
2021/11/01 16:20:38;;;;;;;0.10;0.10;;;11.30;99.90;;;;;;5075030;28;20268;-82
2021/11/01 16:26:01;;;;;;;0.10;0.10;;;11.20;99.90;;;;;;5062801;28;20296;-82
2021/11/01 16:28:30;;;;;;;0.03;0.03;;;11.20;99.90;;;;;;5058243;28;20182;-82
2021/11/01 16:31:43;;;;;;;0.13;0.13;;;11.20;99.90;;;;;;5070744;28;20195;-81
2021/11/01 16:33:48;;;;;;;0.10;0.10;;;11.10;99.90;;;;;;5051320;28;20582;-81
2021/11/01 16:39:13;;;;;;;1.40;1.30;;;11.10;99.90;;;;;;5037246;28;20291;-81
2021/11/01 16:41:41;;;;;;;0.10;0.10;;;11.10;99.90;;;;;;5050094;28;20648;-81
2021/11/01 16:44:49;;;;;;;0.10;0.10;;;11.00;99.90;;;;;;5064201;28;20170;-81
2021/11/01 16:46:56;;;;;;;0.00;0.00;;;10.90;99.90;;;;;;5066099;28;20196;-81
2021/11/01 16:49:23;;;;;;;0.10;0.10;;;10.80;99.90;;;;;;5067826;28;20665;-82
2021/11/01 16:51:51;;;;;;;0.10;0.10;;;10.80;99.90;;;;;;5063069;28;20189;-81
2021/11/01 16:54:20;;;;;;;0.20;0.20;;;10.80;99.90;;;;;;5071435;28;20184;-81
2021/11/01 17:00:02;;;;;;;0.10;0.10;;;10.80;99.90;;;;;;5061939;28;20571;-82
2021/11/01 17:05:29;;;;;;;0.37;0.30;;;10.80;99.90;;;;;;5052723;28;20312;-82
2021/11/01 17:08:34;;;;;;;0.10;0.10;;;10.60;99.90;;;;;;5052636;28;20183;-81
2021/11/01 17:24:55;;;;;;;0.10;0.10;;;9.90;99.90;;;;;;5066043;28;20205;-82
2021/11/01 17:30:41;;;;;;;0.17;0.17;;;9.60;99.90;;;;;;5060480;28;20264;-82
2021/11/01 18:37:59;;;;;;;0.10;0.10;;;8.60;99.90;;;;;;5064397;28;20236;-81
2021/11/01 18:45:06;;;;;;;0.10;0.10;;;8.50;99.90;;;;;;5065020;28;20860;-81
2021/11/01 18:53:14;;;;;;;1.70;0.40;;;8.20;99.90;;;;;;5051541;28;20245;-81
2021/11/01 18:55:48;;;;;;;0.23;0.20;;;8.10;99.90;;;;;;5057609;28;20675;-81
2021/11/01 18:58:15;;;;;;;0.10;0.10;;;8.10;99.90;;;;;;5046461;28;20243;-81
2021/11/01 19:00:43;;;;;;;0.20;0.20;;;8.10;99.90;;;;;;5051572;28;22298;-82
2021/11/01 19:03:11;;;;;;;0.10;0.10;;;8.00;99.90;;;;;;5066340;28;20300;-82
2021/11/01 19:05:45;;;;;;;0.10;0.10;;;7.90;99.90;;;;;;5061050;28;20205;-82
2021/11/01 19:08:32;;;;;;;0.27;0.27;;;7.90;99.90;;;;;;5045353;28;20650;-82
2021/11/01 19:11:30;;;;;;;0.20;0.20;;;7.90;99.90;;;;;;5060876;28;20181;-82
2021/11/01 20:09:37;;;;;;;0.10;0.10;;;7.20;99.90;;;;;;5053134;28;20238;-80
2021/11/01 20:12:28;;;;;;;0.10;0.10;;;7.40;99.90;;;;;;5047907;28;20167;-81
2021/11/01 21:24:49;;;;;;;0.20;0.20;;;7.70;99.90;;;;;;5043650;28;20189;-80
2021/11/01 21:27:21;;;;;;;0.10;0.10;;;7.60;99.90;;;;;;5055276;28;20276;-80
2021/11/01 21:29:48;;;;;;;0.10;0.10;;;7.50;99.90;;;;;;5054295;28;20214;-80
2021/11/01 21:32:14;;;;;;;5.93;0.37;;;7.60;99.90;;;;;;5046784;28;20208;-80
2021/11/01 21:34:53;;;;;;;1.23;0.30;;;7.60;99.90;;;;;;5053440;28;20178;-80
2021/11/01 21:37:19;;;;;;;0.57;0.57;;;7.70;99.90;;;;;;5057110;28;20181;-83
2021/11/01 21:39:45;;;;;;;0.10;0.10;;;7.90;99.90;;;;;;5064381;28;20238;-81
2021/11/01 21:42:10;;;;;;;0.40;0.40;;;8.10;99.90;;;;;;5058646;28;20172;-81
2021/11/01 21:44:38;;;;;;;0.20;0.20;;;8.20;99.90;;;;;;5067982;28;20550;-81
2021/11/01 21:47:04;;;;;;;0.17;0.17;;;8.00;99.90;;;;;;5057230;28;20176;-82
2021/11/01 21:49:30;;;;;;;0.30;0.20;;;7.80;99.90;;;;;;5061954;28;20678;-80
2021/11/01 21:51:57;;;;;;;0.30;0.30;;;7.70;99.90;;;;;;5042279;28;20185;-80
2021/11/01 21:54:39;;;;;;;0.20;0.20;;;7.60;99.90;;;;;;5060718;28;20181;-80
2021/11/01 21:57:10;;;;;;;0.20;0.20;;;7.50;99.90;;;;;;5056933;28;20589;-80
2021/11/01 22:24:17;;;;;;;0.30;0.30;;;7.60;99.90;;;;;;5054630;28;20705;-79
2021/11/01 22:34:49;;;;;;;0.40;0.40;;;7.40;99.90;;;;;;5057669;28;20169;-80
2021/11/01 22:46:08;;;;;;;0.90;0.90;;;7.40;99.90;;;;;;5044227;28;20202;-80
2021/11/01 22:56:38;;;;;;;0.30;0.30;;;7.80;99.90;;;;;;5063700;28;20192;-81
2021/11/01 22:59:04;;;;;;;1.63;1.07;;;7.80;99.90;;;;;;5051453;28;20287;-80
2021/11/01 23:01:36;;;;;;;1.70;0.70;;;7.70;99.90;;;;;;5057681;28;20267;-80
2021/11/01 23:04:10;;;;;;;0.33;0.33;;;7.60;99.90;;;;;;5061272;28;20196;-80
2021/11/01 23:06:52;;;;;;;0.30;0.30;;;7.50;99.90;;;;;;5063091;28;20571;-80
2021/11/01 23:31:30;;;;;;;1.37;0.30;;;8.00;99.90;;;;;;5068485;28;20188;-80
2021/11/01 23:33:58;;;;;;;0.37;0.37;;;7.70;99.90;;;;;;5064605;28;20167;-80
2021/11/01 23:36:23;;;;;;;0.40;0.40;;;7.80;99.90;;;;;;5060497;28;20274;-80
2021/11/01 23:38:50;;;;;;;0.43;0.43;;;7.80;99.90;;;;;;5066995;28;20218;-80
2021/11/01 23:41:16;;;;;;;0.40;0.20;;;7.50;99.90;;;;;;5067485;28;20174;-80
2021/11/01 23:43:42;;;;;;;1.03;1.03;;;7.40;99.90;;;;;;5066296;28;20204;-80
2021/11/01 23:46:08;;;;;;;0.40;0.30;;;7.40;99.90;;;;;;5067561;28;20566;-80
2021/11/01 23:48:34;;;;;;;0.40;0.27;;;7.60;99.90;;;;;;5064544;28;20258;-80
2021/11/01 23:51:00;;;;;;;0.17;0.17;;;7.50;99.90;;;;;;5066943;28;20173;-81
2021/11/01 23:56:02;;;;;;;0.53;0.47;;;7.50;99.90;;;;;;5060913;28;20572;-80
2021/11/01 23:58:27;;;;;;;5.83;0.63;;;7.50;99.90;;;;;;5065716;28;20638;-80
